createdAt,value
2018-05-15T00:00:43.433Z,11.41
2018-05-15T00:03:12.966Z,11.43
2018-05-15T00:05:42.875Z,11.44
2018-05-15T00:08:12.395Z,11.30
2018-05-15T00:10:41.925Z,11.31
2018-05-15T00:13:11.455Z,11.34
2018-05-15T00:15:41.037Z,11.33
2018-05-15T00:18:10.553Z,11.29
2018-05-15T00:20:40.075Z,11.34
2018-05-15T00:23:10.444Z,11.34
2018-05-15T00:25:40.765Z,11.31
2018-05-15T00:28:10.279Z,11.26
2018-05-15T00:30:40.217Z,11.21
2018-05-15T00:33:09.741Z,11.14
2018-05-15T00:35:39.325Z,11.09
2018-05-15T00:38:09.863Z,11.06
2018-05-15T00:40:39.401Z,11.11
2018-05-15T00:43:08.930Z,11.10
2018-05-15T00:45:38.518Z,11.16
2018-05-15T00:48:08.054Z,11.20
2018-05-15T00:50:37.786Z,11.20
2018-05-15T00:53:07.757Z,11.16
2018-05-15T00:55:44.254Z,11.12
2018-05-15T00:58:14.350Z,11.08
2018-05-15T01:00:43.898Z,11.09
2018-05-15T01:03:13.834Z,11.05
2018-05-15T01:05:43.425Z,11.02
2018-05-15T01:08:13.374Z,11.06
2018-05-15T01:10:42.888Z,11.12
2018-05-15T01:13:12.429Z,11.11
2018-05-15T01:15:41.942Z,11.13
2018-05-15T01:18:11.460Z,11.14
2018-05-15T01:20:41.388Z,11.17
2018-05-15T01:23:10.914Z,11.13
2018-05-15T01:25:40.450Z,11.16
2018-05-15T01:28:09.995Z,11.21
2018-05-15T01:30:39.898Z,11.20
2018-05-15T01:33:09.811Z,11.17
2018-05-15T01:35:39.369Z,11.20
2018-05-15T01:38:08.903Z,11.25
2018-05-15T01:40:38.445Z,11.22
2018-05-15T01:43:08.367Z,11.14
2018-05-15T01:45:38.348Z,11.10
2018-05-15T01:48:08.053Z,11.01
2018-05-15T01:50:37.564Z,11.06
2018-05-15T01:53:07.091Z,11.10
2018-05-15T01:55:37.009Z,11.06
2018-05-15T01:58:06.946Z,11.09
2018-05-15T02:00:36.643Z,11.07
2018-05-15T02:03:06.602Z,11.14
2018-05-15T02:05:36.310Z,11.13
2018-05-15T02:08:05.899Z,11.15
2018-05-15T02:10:35.487Z,11.07
2018-05-15T02:13:05.413Z,11.03
2018-05-15T02:15:34.926Z,11.05
2018-05-15T02:18:04.499Z,11.03
2018-05-15T02:20:34.411Z,11.08
2018-05-15T02:23:03.933Z,11.08
2018-05-15T02:25:33.853Z,11.14
2018-05-15T02:28:03.797Z,11.18
2018-05-15T02:30:33.356Z,11.21
2018-05-15T02:33:03.101Z,11.20
2018-05-15T02:35:33.257Z,11.13
2018-05-15T02:38:02.766Z,11.18
2018-05-15T02:40:32.287Z,11.24
2018-05-15T02:43:01.833Z,11.19
2018-05-15T02:45:31.743Z,11.15
2018-05-15T02:48:01.277Z,11.17
2018-05-15T02:50:30.811Z,11.24
2018-05-15T02:53:00.340Z,11.21
2018-05-15T02:55:30.301Z,11.16
2018-05-15T02:57:59.850Z,11.10
2018-05-15T03:00:29.586Z,11.11
2018-05-15T03:02:59.503Z,11.12
2018-05-15T03:05:29.798Z,11.11
2018-05-15T03:07:59.629Z,11.12
2018-05-15T03:10:29.211Z,11.20
2018-05-15T03:12:58.761Z,11.19
2018-05-15T03:15:28.323Z,11.23
2018-05-15T03:17:57.850Z,11.22
2018-05-15T03:20:27.397Z,11.18
2018-05-15T03:22:56.947Z,11.10
2018-05-15T03:25:26.499Z,11.07
2018-05-15T03:27:56.036Z,11.13
2018-05-15T03:30:25.631Z,11.12
2018-05-15T03:32:55.145Z,11.11
2018-05-15T03:35:24.683Z,11.13
2018-05-15T03:37:54.227Z,11.19
2018-05-15T03:40:24.146Z,11.17
2018-05-15T03:42:53.669Z,11.22
2018-05-15T03:45:23.175Z,11.18
2018-05-15T03:47:52.731Z,11.14
2018-05-15T03:50:22.263Z,11.14
2018-05-15T03:52:52.172Z,11.15
2018-05-15T03:55:22.093Z,11.18
2018-05-15T03:57:52.106Z,11.16
2018-05-15T04:00:38.992Z,11.12
2018-05-15T04:06:41.101Z,11.06
2018-05-15T04:09:11.017Z,10.95
2018-05-15T04:11:40.970Z,10.99
2018-05-15T04:14:10.981Z,11.03
2018-05-15T04:16:40.499Z,11.11
2018-05-15T04:19:10.772Z,11.16
2018-05-15T04:21:40.333Z,11.13
2018-05-15T04:24:09.916Z,11.13
2018-05-15T04:26:39.432Z,11.09
2018-05-15T04:29:08.951Z,11.08
2018-05-15T04:31:38.485Z,11.05
2018-05-15T04:34:08.079Z,11.01
2018-05-15T04:36:37.602Z,11.04
2018-05-15T04:39:07.524Z,11.10
2018-05-15T04:41:37.064Z,11.13
2018-05-15T04:44:06.580Z,11.12
2018-05-15T04:46:36.178Z,11.14
2018-05-15T04:49:06.142Z,11.18
2018-05-15T04:51:35.833Z,11.13
2018-05-15T04:54:05.584Z,11.16
2018-05-15T04:56:35.310Z,11.19
2018-05-15T04:59:04.883Z,11.12
2018-05-15T05:01:34.436Z,11.17
2018-05-15T05:04:03.734Z,11.27
2018-05-15T05:06:33.739Z,11.30
2018-05-15T05:09:03.212Z,11.30
2018-05-15T05:11:39.846Z,11.22
2018-05-15T05:14:09.532Z,11.24
2018-05-15T05:16:39.450Z,11.21
2018-05-15T05:19:09.402Z,11.09
2018-05-15T05:21:38.940Z,11.07
2018-05-15T05:24:08.468Z,11.13
2018-05-15T05:26:38.452Z,11.17
2018-05-15T05:29:07.727Z,11.22
2018-05-15T05:31:37.278Z,11.23
2018-05-15T05:34:06.859Z,11.28
2018-05-15T05:36:36.456Z,11.39
2018-05-15T05:39:05.864Z,11.43
2018-05-15T05:41:35.430Z,11.43
2018-05-15T05:44:05.009Z,11.41
2018-05-15T05:46:34.555Z,11.37
2018-05-15T05:49:04.106Z,11.47
2018-05-15T05:51:34.114Z,11.44
2018-05-15T05:54:03.634Z,11.57
2018-05-15T05:56:33.395Z,11.61
2018-05-15T05:59:02.943Z,11.55
2018-05-15T06:01:32.537Z,11.51
2018-05-15T06:04:02.060Z,11.45
2018-05-15T06:06:31.599Z,11.34
2018-05-15T06:09:01.291Z,11.32
2018-05-15T06:11:30.893Z,11.32
2018-05-15T06:14:00.423Z,11.35
2018-05-15T06:16:30.359Z,11.39
2018-05-15T06:19:00.336Z,11.42
2018-05-15T06:21:29.889Z,11.45
2018-05-15T06:24:00.023Z,11.53
2018-05-15T06:26:29.799Z,11.49
2018-05-15T06:28:59.731Z,11.54
2018-05-15T06:31:29.260Z,11.62
2018-05-15T06:33:58.869Z,11.64
2018-05-15T06:36:28.478Z,11.72
2018-05-15T06:38:58.016Z,11.77
2018-05-15T06:41:27.587Z,11.84
2018-05-15T06:43:57.131Z,11.94
2018-05-15T06:46:26.658Z,12.10
2018-05-15T06:48:56.600Z,12.15
2018-05-15T06:51:26.146Z,12.21
2018-05-15T06:53:55.714Z,12.22
2018-05-15T06:56:25.251Z,12.19
2018-05-15T06:58:54.774Z,12.17
2018-05-15T07:01:24.295Z,12.19
2018-05-15T07:03:53.827Z,12.30
2018-05-15T07:06:23.762Z,12.25
2018-05-15T07:08:53.282Z,12.20
2018-05-15T07:11:22.839Z,12.21
2018-05-15T07:13:52.391Z,12.25
2018-05-15T07:16:21.904Z,12.29
2018-05-15T07:18:51.774Z,12.35
2018-05-15T07:21:21.723Z,12.40
2018-05-15T07:23:51.261Z,12.41
2018-05-15T07:26:20.797Z,12.36
2018-05-15T07:28:50.731Z,12.27
2018-05-15T07:31:21.675Z,12.33
2018-05-15T07:33:52.291Z,12.39
2018-05-15T07:36:22.221Z,12.43
2018-05-15T07:38:51.763Z,12.55
2018-05-15T07:41:21.291Z,12.53
2018-05-15T07:43:50.859Z,12.63
2018-05-15T07:46:20.446Z,12.66
2018-05-15T07:48:49.977Z,12.72
2018-05-15T07:51:19.499Z,12.84
2018-05-15T07:53:49.025Z,12.78
2018-05-15T07:56:18.541Z,12.91
2018-05-15T07:58:48.055Z,12.89
2018-05-15T08:01:17.592Z,13.09
2018-05-15T08:03:47.109Z,13.13
2018-05-15T08:06:16.631Z,13.14
2018-05-15T08:08:46.229Z,13.17
2018-05-15T08:11:15.747Z,13.11
2018-05-15T08:13:45.331Z,13.13
2018-05-15T08:16:14.861Z,13.01
2018-05-15T08:18:44.822Z,12.98
2018-05-15T08:21:14.871Z,13.00
2018-05-15T08:23:44.484Z,12.91
2018-05-15T08:26:14.041Z,13.02
2018-05-15T08:28:43.633Z,13.02
2018-05-15T08:31:13.159Z,13.10
2018-05-15T08:33:42.682Z,13.07
2018-05-15T08:36:12.599Z,13.10
2018-05-15T08:38:42.523Z,13.14
2018-05-15T08:44:48.369Z,13.29
2018-05-15T08:47:17.883Z,13.39
2018-05-15T08:49:47.807Z,13.48
2018-05-15T08:52:17.741Z,13.57
2018-05-15T08:54:47.308Z,13.65
2018-05-15T08:57:16.833Z,13.67
2018-05-15T08:59:46.747Z,13.76
2018-05-15T09:02:16.693Z,13.70
2018-05-15T09:04:46.215Z,13.77
2018-05-15T09:07:15.790Z,13.89
2018-05-15T09:09:45.323Z,14.08
2018-05-15T09:12:14.854Z,14.17
2018-05-15T09:14:44.379Z,14.43
2018-05-15T09:17:13.901Z,14.90
2018-05-15T09:19:44.325Z,15.31
2018-05-15T09:22:14.041Z,15.24
2018-05-15T09:24:43.969Z,15.35
2018-05-15T09:27:13.519Z,15.42
2018-05-15T09:29:43.033Z,15.26
2018-05-15T09:32:12.583Z,14.98
2018-05-15T09:34:42.391Z,15.03
2018-05-15T09:37:12.322Z,15.08
2018-05-15T09:39:41.871Z,14.92
2018-05-15T09:42:11.391Z,14.96
2018-05-15T09:44:40.935Z,14.76
2018-05-15T09:47:10.472Z,14.52
2018-05-15T09:49:40.000Z,14.46
2018-05-15T09:52:09.576Z,14.61
2018-05-15T09:54:38.772Z,14.51
2018-05-15T09:57:08.309Z,14.37
2018-05-15T09:59:37.831Z,14.35
2018-05-15T10:02:07.365Z,14.34
2018-05-15T10:04:37.287Z,14.31
2018-05-15T10:07:06.493Z,14.30
2018-05-15T10:09:36.167Z,14.30
2018-05-15T10:12:05.712Z,14.26
2018-05-15T10:14:35.227Z,14.14
2018-05-15T10:17:04.762Z,14.18
2018-05-15T10:19:34.290Z,14.16
2018-05-15T10:22:03.835Z,14.24
2018-05-15T10:24:33.377Z,13.84
2018-05-15T10:27:02.899Z,13.61
2018-05-15T10:29:32.453Z,13.54
2018-05-15T10:32:02.020Z,13.41
2018-05-15T10:34:31.575Z,13.70
2018-05-15T10:37:01.104Z,13.81
2018-05-15T10:39:30.700Z,14.03
2018-05-15T10:42:00.241Z,14.11
2018-05-15T10:44:29.793Z,14.09
2018-05-15T10:46:59.319Z,14.13
2018-05-15T10:49:28.835Z,14.02
2018-05-15T10:51:58.350Z,14.12
2018-05-15T10:54:27.895Z,14.25
2018-05-15T10:56:57.841Z,14.56
2018-05-15T10:59:27.380Z,14.64
2018-05-15T11:01:56.915Z,14.62
2018-05-15T11:04:26.963Z,14.74
2018-05-15T11:06:57.145Z,14.91
2018-05-15T11:09:26.697Z,15.10
2018-05-15T11:11:56.405Z,15.32
2018-05-15T11:14:25.930Z,15.90
2018-05-15T11:16:55.478Z,16.30
2018-05-15T11:22:51.653Z,17.09
2018-05-15T11:25:21.219Z,17.13
2018-05-15T11:27:50.731Z,17.41
2018-05-15T11:30:20.273Z,17.69
2018-05-15T11:32:50.188Z,17.66
2018-05-15T11:35:20.121Z,17.58
2018-05-15T11:37:49.641Z,17.68
2018-05-15T11:40:19.317Z,17.65
2018-05-15T11:42:49.305Z,17.92
2018-05-15T11:45:18.887Z,17.61
2018-05-15T11:47:48.687Z,17.66
2018-05-15T11:50:19.032Z,17.44
2018-05-15T11:52:48.894Z,17.40
2018-05-15T11:55:18.055Z,17.80
2018-05-15T11:57:47.626Z,18.01
2018-05-15T12:00:17.306Z,18.23
2018-05-15T12:02:47.450Z,18.49
2018-05-15T12:05:17.505Z,18.10
2018-05-15T12:07:47.328Z,17.69
2018-05-15T12:10:16.943Z,17.73
2018-05-15T12:12:46.772Z,18.13
2018-05-15T12:15:16.477Z,18.75
2018-05-15T12:17:46.002Z,18.77
2018-05-15T12:20:15.534Z,19.08
2018-05-15T12:22:45.190Z,19.21
2018-05-15T12:25:14.731Z,19.07
2018-05-15T12:27:44.850Z,18.64
2018-05-15T12:30:14.416Z,18.31
2018-05-15T12:32:43.952Z,18.29
2018-05-15T12:35:13.882Z,18.18
2018-05-15T12:37:43.405Z,17.94
2018-05-15T12:40:12.934Z,17.72
2018-05-15T12:42:42.456Z,17.37
2018-05-15T12:45:11.994Z,17.16
2018-05-15T12:47:42.022Z,16.86
2018-05-15T12:50:11.673Z,16.68
2018-05-15T12:52:41.221Z,16.64
2018-05-15T12:55:11.130Z,16.43
2018-05-15T12:57:41.065Z,16.52
2018-05-15T13:00:10.984Z,16.40
2018-05-15T13:02:40.518Z,16.29
2018-05-15T13:05:10.048Z,16.20
2018-05-15T13:07:39.661Z,16.19
2018-05-15T13:10:09.326Z,16.07
2018-05-15T13:12:38.850Z,16.07
2018-05-15T13:15:08.377Z,15.87
2018-05-15T13:17:38.448Z,15.73
2018-05-15T13:20:07.970Z,15.68
2018-05-15T13:22:37.503Z,15.64
2018-05-15T13:25:07.024Z,15.61
2018-05-15T13:27:36.533Z,15.54
2018-05-15T13:30:06.079Z,15.47
2018-05-15T13:32:35.665Z,15.50
2018-05-15T13:35:05.588Z,15.43
2018-05-15T13:37:35.486Z,15.41
2018-05-15T13:40:04.671Z,15.45
2018-05-15T13:42:34.193Z,15.41
2018-05-15T13:45:04.182Z,15.32
2018-05-15T13:47:33.692Z,15.19
2018-05-15T13:50:03.214Z,15.18
2018-05-15T13:52:32.732Z,15.13
2018-05-15T13:55:02.738Z,15.18
2018-05-15T13:57:32.348Z,15.10
2018-05-15T14:00:02.283Z,15.25
2018-05-15T14:02:31.801Z,15.29
2018-05-15T14:05:01.309Z,15.22
2018-05-15T14:07:30.830Z,15.18
2018-05-15T14:10:00.352Z,15.32
2018-05-15T14:12:29.888Z,15.16
2018-05-15T14:14:59.575Z,15.23
2018-05-15T14:17:29.100Z,15.14
2018-05-15T14:19:58.642Z,15.15
2018-05-15T14:22:28.373Z,15.32
2018-05-15T14:24:57.895Z,15.57
2018-05-15T14:27:27.429Z,15.59
2018-05-15T14:29:56.952Z,15.62
2018-05-15T14:32:26.906Z,15.83
2018-05-15T14:34:56.991Z,15.96
2018-05-15T14:37:26.920Z,16.14
2018-05-15T14:39:56.544Z,16.24
2018-05-15T14:42:43.024Z,16.29
2018-05-15T14:45:17.754Z,16.37
2018-05-15T14:47:47.662Z,16.33
2018-05-15T14:50:17.620Z,16.24
2018-05-15T14:52:47.190Z,16.25
2018-05-15T14:55:17.133Z,16.29
2018-05-15T14:57:46.656Z,16.33
2018-05-15T15:00:16.188Z,16.38
2018-05-15T15:02:45.724Z,16.23
2018-05-15T15:05:15.652Z,16.32
2018-05-15T15:07:45.257Z,16.29
2018-05-15T15:10:14.824Z,16.45
2018-05-15T15:12:44.375Z,16.48
2018-05-15T15:15:13.946Z,16.39
2018-05-15T15:17:43.472Z,16.17
2018-05-15T15:20:13.399Z,16.09
2018-05-15T15:22:42.934Z,16.03
2018-05-15T15:25:12.607Z,15.87
2018-05-15T15:27:42.519Z,15.62
2018-05-15T15:30:12.638Z,15.63
2018-05-15T15:32:42.572Z,15.48
2018-05-15T15:35:12.183Z,15.42
2018-05-15T15:37:41.854Z,15.43
2018-05-15T15:40:11.414Z,15.55
2018-05-15T15:42:40.971Z,15.58
2018-05-15T15:45:10.539Z,15.47
2018-05-15T15:47:40.066Z,15.58
2018-05-15T15:50:09.598Z,15.61
2018-05-15T15:52:39.512Z,15.66
2018-05-15T15:55:09.456Z,15.68
2018-05-15T15:57:38.977Z,15.76
2018-05-15T16:00:08.576Z,15.68
2018-05-15T16:02:37.888Z,15.65
2018-05-15T16:05:07.486Z,15.53
2018-05-15T16:07:36.999Z,15.47
2018-05-15T16:10:06.566Z,15.48
2018-05-15T16:12:36.259Z,15.38
2018-05-15T16:15:05.471Z,15.52
2018-05-15T16:17:35.408Z,15.65
2018-05-15T16:20:04.622Z,15.60
2018-05-15T16:22:34.168Z,15.59
2018-05-15T16:25:03.464Z,15.53
2018-05-15T16:27:33.030Z,15.75
2018-05-15T16:30:02.646Z,15.85
2018-05-15T16:32:32.160Z,15.77
2018-05-15T16:35:01.707Z,15.28
2018-05-15T16:37:31.557Z,15.17
2018-05-15T16:40:02.048Z,14.99
2018-05-15T16:42:32.027Z,14.66
2018-05-15T16:45:01.624Z,14.27
2018-05-15T16:47:31.223Z,14.12
2018-05-15T16:50:00.915Z,13.39
2018-05-15T16:52:30.820Z,13.05
2018-05-15T16:55:00.759Z,12.86
2018-05-15T16:57:30.492Z,12.59
2018-05-15T17:00:00.495Z,12.59
2018-05-15T17:02:30.017Z,12.48
2018-05-15T17:04:59.530Z,12.33
2018-05-15T17:07:29.824Z,12.30
2018-05-15T17:09:59.336Z,12.07
2018-05-15T17:12:28.900Z,12.30
2018-05-15T17:14:58.426Z,12.56
2018-05-15T17:17:28.355Z,12.62
2018-05-15T17:19:57.877Z,12.53
2018-05-15T17:22:27.418Z,12.56
2018-05-15T17:24:56.937Z,12.65
2018-05-15T17:27:26.454Z,12.68
2018-05-15T17:29:55.981Z,12.48
2018-05-15T17:32:25.886Z,12.19
2018-05-15T17:34:55.651Z,12.27
2018-05-15T17:37:25.202Z,12.24
2018-05-15T17:39:55.158Z,11.90
2018-05-15T17:42:24.708Z,11.73
2018-05-15T17:44:54.224Z,11.60
2018-05-15T17:47:24.161Z,11.05
2018-05-15T17:49:54.278Z,10.79
2018-05-15T17:52:24.199Z,10.77
2018-05-15T17:54:53.736Z,10.69
2018-05-15T17:57:23.461Z,10.64
2018-05-15T17:59:53.066Z,10.48
2018-05-15T18:02:22.755Z,10.59
2018-05-15T18:04:52.489Z,10.82
2018-05-15T18:07:22.017Z,11.13
2018-05-15T18:09:51.610Z,11.03
2018-05-15T18:12:21.323Z,11.39
2018-05-15T18:14:51.583Z,11.65
2018-05-15T18:17:21.653Z,11.89
2018-05-15T18:19:51.175Z,11.95
2018-05-15T18:22:20.698Z,12.02
2018-05-15T18:24:50.660Z,12.00
2018-05-15T18:27:20.174Z,11.85
2018-05-15T18:29:49.689Z,11.46
2018-05-15T18:32:19.225Z,11.34
2018-05-15T18:34:48.776Z,11.40
2018-05-15T18:37:18.390Z,11.42
2018-05-15T18:39:47.966Z,11.43
2018-05-15T18:42:17.872Z,11.33
2018-05-15T18:44:47.843Z,11.22
2018-05-15T18:47:17.412Z,11.12
2018-05-15T18:49:47.344Z,10.98
2018-05-15T18:52:16.902Z,10.96
2018-05-15T18:54:46.447Z,10.84
2018-05-15T18:57:15.967Z,10.91
2018-05-15T18:59:45.536Z,10.99
2018-05-15T19:02:15.498Z,10.91
2018-05-15T19:04:45.039Z,10.95
2018-05-15T19:07:14.564Z,10.97
2018-05-15T19:09:44.100Z,11.00
2018-05-15T19:12:13.876Z,10.95
2018-05-15T19:14:43.511Z,10.86
2018-05-15T19:17:13.180Z,10.88
2018-05-15T19:19:43.136Z,10.88
2018-05-15T19:22:12.728Z,10.91
2018-05-15T19:24:42.685Z,10.94
2018-05-15T19:27:12.258Z,10.95
2018-05-15T19:29:42.404Z,10.96
2018-05-15T19:32:17.662Z,11.02
2018-05-15T19:34:52.561Z,10.97
2018-05-15T19:37:22.475Z,11.05
2018-05-15T19:39:52.167Z,10.99
2018-05-15T19:42:21.716Z,11.01
2018-05-15T19:44:51.279Z,11.16
2018-05-15T19:47:20.991Z,11.22
2018-05-15T19:49:50.910Z,11.21
2018-05-15T19:52:20.849Z,11.16
2018-05-15T19:54:50.435Z,11.24
2018-05-15T19:57:20.403Z,11.28
2018-05-15T19:59:49.914Z,11.13
2018-05-15T20:02:19.451Z,11.27
2018-05-15T20:04:49.037Z,11.28
2018-05-15T20:07:18.658Z,11.19
2018-05-15T20:09:48.339Z,11.26
2018-05-15T20:12:17.878Z,11.28
2018-05-15T20:14:47.409Z,11.28
2018-05-15T20:17:17.389Z,11.20
2018-05-15T20:19:46.885Z,11.01
2018-05-15T20:22:16.416Z,11.08
2018-05-15T20:24:46.273Z,11.06
2018-05-15T20:27:15.822Z,11.06
2018-05-15T20:29:46.036Z,11.04
2018-05-15T20:32:15.566Z,11.03
2018-05-15T20:34:45.898Z,10.97
2018-05-15T20:37:15.385Z,11.00
2018-05-15T20:39:45.011Z,10.99
2018-05-15T20:42:14.603Z,11.06
2018-05-15T20:44:44.326Z,11.21
2018-05-15T20:47:14.282Z,11.22
2018-05-15T20:49:43.807Z,11.35
2018-05-15T20:52:13.395Z,11.33
2018-05-15T20:54:43.125Z,11.33
2018-05-15T20:57:12.670Z,11.26
2018-05-15T20:59:42.201Z,11.32
2018-05-15T21:02:12.217Z,11.29
2018-05-15T21:04:41.749Z,11.27
2018-05-15T21:07:11.328Z,11.32
2018-05-15T21:09:41.319Z,11.34
2018-05-15T21:12:11.163Z,11.36
2018-05-15T21:14:40.754Z,11.39
2018-05-15T21:17:11.015Z,11.52
2018-05-15T21:19:40.571Z,11.56
2018-05-15T21:22:10.125Z,11.55
2018-05-15T21:24:40.619Z,11.35
2018-05-15T21:27:10.589Z,11.24
2018-05-15T21:29:40.170Z,11.24
2018-05-15T21:32:09.711Z,11.29
2018-05-15T21:34:39.283Z,11.15
2018-05-15T21:37:08.811Z,11.22
2018-05-15T21:39:38.358Z,11.25
2018-05-15T21:42:07.899Z,11.30
2018-05-15T21:44:37.432Z,11.34
2018-05-15T21:47:06.949Z,11.32
2018-05-15T21:49:36.486Z,11.43
2018-05-15T21:52:06.232Z,11.48
2018-05-15T21:54:35.811Z,11.45
2018-05-15T21:57:05.734Z,11.50
2018-05-15T21:59:35.664Z,11.51
2018-05-15T22:02:05.577Z,11.51
2018-05-15T22:04:35.543Z,11.54
2018-05-15T22:07:05.189Z,11.50
2018-05-15T22:09:35.147Z,11.44
2018-05-15T22:12:21.428Z,11.35
2018-05-15T22:15:07.968Z,11.33
2018-05-15T22:17:54.389Z,11.26
2018-05-15T22:20:40.598Z,11.24
2018-05-15T22:23:08.571Z,11.27
2018-05-15T22:25:38.101Z,11.26
2018-05-15T22:28:07.756Z,11.12
2018-05-15T22:30:37.303Z,11.07
2018-05-15T22:33:07.231Z,11.02
2018-05-15T22:35:36.838Z,11.01
2018-05-15T22:38:06.432Z,10.79
2018-05-15T22:40:36.405Z,10.77
2018-05-15T22:43:06.125Z,10.80
2018-05-15T22:45:35.695Z,10.83
2018-05-15T22:48:05.290Z,10.76
2018-05-15T22:50:34.817Z,10.72
2018-05-15T22:53:04.343Z,10.78
2018-05-15T22:55:33.867Z,10.79
2018-05-15T22:58:03.408Z,10.89
2018-05-15T23:00:33.370Z,10.93
2018-05-15T23:03:02.892Z,10.87
2018-05-15T23:05:32.421Z,10.96
2018-05-15T23:08:02.382Z,10.96
2018-05-15T23:10:31.996Z,10.96
2018-05-15T23:13:01.744Z,10.97
2018-05-15T23:15:31.288Z,10.81
2018-05-15T23:18:00.813Z,10.90
2018-05-15T23:20:30.328Z,10.85
2018-05-15T23:22:59.865Z,10.92
2018-05-15T23:25:29.142Z,10.96
2018-05-15T23:27:58.664Z,11.02
2018-05-15T23:30:28.196Z,11.07
2018-05-15T23:32:58.138Z,11.13
2018-05-15T23:35:27.656Z,11.05
2018-05-15T23:37:57.224Z,11.07
2018-05-15T23:40:27.132Z,11.05
2018-05-15T23:42:56.664Z,11.02
2018-05-15T23:45:26.206Z,10.84
2018-05-15T23:47:55.730Z,10.79
2018-05-15T23:50:25.273Z,10.88
2018-05-15T23:52:55.445Z,10.90
2018-05-15T23:55:24.968Z,10.91
2018-05-15T23:57:54.546Z,10.88
